Aviation Digital Data Service (ADDS)

Output produced by METARs form (1811 UTC 24 June 2018)
found at http://aviationweather.gov/adds/metars/
 
KHDC 241725Z 2418/2518 20007KT P6SM SCT035 BKN050 
     FM250000 18005KT P6SM FEW045 FEW250 
     FM251100 00000KT P6SM BKN015 
     FM251400 00000KT P6SM SCT025